Get Adobe Flash player

РУС

ENG

 
  Pireps - S7
 

Рейс SBI5

  • Выполнял: Andrew Vyunov
  • Аэропорт отправления: Domodedovo Airport (UUDD)
  • Аэропорт назначения: Pulkovo Airport (ULLI)
  • Тип ВС: A319-112 (VP-BTO)
  • Время полёта: 01.14
  • Дата полёта: 16.09.2018
  • Маршрут: WT BEL1D BELAG R369 DB B964 LUKIR
  • Статус: Одобрен

Детали полёта
Gross Revenue:
(115 load / $ 200.00 per unit
$ 23, 000.00
Fuel Cost:
(15912 fuel used @ 5.1 / unit)
$ 81, 151.20


Дополнительная информация о полёте:

Лог

Aircraft Used in flight is Airbus A320-214 CFM Sharklets Airbus house color
11:04 Boarding
11:04 Brakes are On
11:08 Strobe Lights ON at 600 AGL
11:08 Beacon Lights ON at 600 AGL
11:08 Navigation Lights ON at 600 AGL
11:08 Engine 1 Started
11:08 Engine 2 Started
11:09 Taxi Lights ON at 600 AGL
11:09 Brakes are Released
11:13Flaps 5 Selected at 600ft and 0kts
11:15 Landing Lights ON at 600 AGL
11:16 You Took off @ 188 Knots and Flaps at Position 5
Departure Weather
UUDD 160800Z 31003MPS 270V010 CAVOK 18/11 Q1009 R88/010095 NOSIGrn
11:16 Landing Gear Up @ 169 Knots and 1120 Feet
11:17Flaps 4 Selected at 1980ft and 163kts
11:17 Taxi Lights OFF at 3430 AGL
11:17 Landing Lights OFF at 3450 AGL
11:17Flaps 3 Selected at 3550ft and 197kts
11:20Flaps 2 Selected at 10100ft and 194kts
11:20Flaps 1 Selected at 10240ft and 194kts
11:20Flaps Retracted at 10480ft and 195kts
11:23Flaps 1 Selected at 17260ft and 248kts
11:23Flaps Retracted at 17580ft and 247kts
12:06Flaps 1 Selected at 11520ft and 254kts
12:10 Landing Lights ON at 3460 AGL
12:10 Taxi Lights ON at 3250 AGL
12:10Flaps 2 Selected at 3120ft and 232kts
12:10Flaps 3 Selected at 2670ft and 228kts
12:10 Landing Gear Down @ 227 Knots and 2630 Feet
12:10Flaps 5 Selected at 2610ft and 226kts
12:14 You Landed @ 170 Knots and with -100 Vertical Speed
Arrival Weather
ULLI 160730Z 29006MPS 9999 -SHRA SCT009 SCT023CB 13/11 Q1010 R88/290050 NOSIGrn
12:14Flaps Retracted at 90ft and 61kts
12:15 Taxiing to gate
12:15 Landing Lights OFF at 90 AGL
12:17 Brakes are On
12:17 Engine 1 Stoped
12:17 Engine 2 Stoped
12:18 Taxi Lights OFF at 90 AGL
Pirep logged with S7 Tracking 1.0.0.13



Общая оценка полета : 100%




Route Map



 
 
   
 
Новости

26.04.2018 - Полеты в X-PLANE

Наш клиент S7 Pad поддерживает полеты как в MFSX, Prepar3d V4, так и в X-PLANE 10 и 11 версиях!
На нашем сайте в разреде загруки есть плагин XPUIPIC for X-plane.
Приятных Вам полетов и мягких посадок!

   
 
Авторизация






Регистрация

Восстановить пароль?

Мы в соц. сетях

      



   
  TeamSpeak3 ts.va-s7.ru


   
 

   
 



   
 


Яндекс.Метрика

www.va-s7.ru 2011-2017
Все права защищены.



Минуточку внимания!
Мы не имеем отношения к торговым маркам "S7" и "Globus" и их представителям.
Эмблемы на сайте являются собственностью соответствующих компаний.

аэронавигационная метеорологическая и любая другая информация с данного ресурса ни в коем случае не должна использоваться для реальных полетов